DAL00L BIKF-KJFK
Flight info
| Callsign | DAL00L |
|---|---|
| Flight time | N/A |
| Altitude | 38000 |
| Route | M081F380 DELES2C DELES DCT DOPOD DCT 61N030W 5630N04000W 54N050W DCT NEEKO/N0464F380 N616B TOPPS DCT ENE PARCH3 |
| Aircraft | A333/H-SDE3GHIJ2J3J5M1RVWXY/LB2D1 |
Departure
| Time | 2026-04-27 01:47 |
|---|---|
| Airport | Keflavik International Airport (BIKF) |
Arrival
| Time | N/A |
|---|---|
| Airport | John F. Kennedy International Airport (KJFK) |
| Time | Latitude | Longitude | Altitude | Speed | Heading |
|---|---|---|---|---|---|
| 2026-04-27 01:24 | 63.99246 | -22.61845 | 146 ft | 0 kts | 90° |
| 2026-04-27 01:30 | 63.99247 | -22.61840 | 146 ft | 0 kts | 72° |
| 2026-04-27 01:30 | 63.99254 | -22.61831 | 146 ft | 1 kts | 17° |
| 2026-04-27 01:30 | 63.99265 | -22.61855 | 146 ft | 3 kts | 284° |
| 2026-04-27 01:30 | 63.99257 | -22.61944 | 146 ft | 6 kts | 230° |
| 2026-04-27 01:31 | 63.99209 | -22.61976 | 146 ft | 9 kts | 166° |
| 2026-04-27 01:31 | 63.99175 | -22.61849 | 146 ft | 12 kts | 89° |
| 2026-04-27 01:31 | 63.99176 | -22.61636 | 146 ft | 14 kts | 89° |
| 2026-04-27 01:31 | 63.99172 | -22.61389 | 146 ft | 15 kts | 91° |
| 2026-04-27 01:32 | 63.99174 | -22.61149 | 150 ft | 14 kts | 90° |
| 2026-04-27 01:32 | 63.99171 | -22.60916 | 150 ft | 10 kts | 88° |
| 2026-04-27 01:32 | 63.99171 | -22.60905 | 150 ft | 0 kts | 87° |
| 2026-04-27 01:32 | 63.99171 | -22.60892 | 150 ft | 1 kts | 87° |
| 2026-04-27 01:33 | 63.99172 | -22.60879 | 150 ft | 0 kts | 87° |
| 2026-04-27 01:33 | 63.99172 | -22.60861 | 150 ft | 2 kts | 87° |
| 2026-04-27 01:33 | 63.99173 | -22.60824 | 150 ft | 0 kts | 87° |
| 2026-04-27 01:34 | 63.99173 | -22.60810 | 150 ft | 2 kts | 87° |
| 2026-04-27 01:34 | 63.99175 | -22.60736 | 150 ft | 6 kts | 86° |
| 2026-04-27 01:35 | 63.99166 | -22.60615 | 150 ft | 9 kts | 94° |
| 2026-04-27 01:35 | 63.99173 | -22.60451 | 150 ft | 12 kts | 84° |
| 2026-04-27 01:35 | 63.99173 | -22.60413 | 150 ft | 0 kts | 90° |
| 2026-04-27 01:35 | 63.99173 | -22.60410 | 150 ft | 0 kts | 91° |
| 2026-04-27 01:37 | 63.99173 | -22.60401 | 150 ft | 1 kts | 92° |
| 2026-04-27 01:37 | 63.99173 | -22.60375 | 150 ft | 2 kts | 87° |
| 2026-04-27 01:37 | 63.99171 | -22.60344 | 150 ft | 2 kts | 105° |
| 2026-04-27 01:38 | 63.99175 | -22.60312 | 150 ft | 2 kts | 72° |
| 2026-04-27 01:38 | 63.99184 | -22.60281 | 150 ft | 2 kts | 26° |
| 2026-04-27 01:38 | 63.99197 | -22.60302 | 150 ft | 2 kts | 289° |
| 2026-04-27 01:38 | 63.99190 | -22.60364 | 150 ft | 5 kts | 253° |
| 2026-04-27 01:39 | 63.99178 | -22.60448 | 150 ft | 6 kts | 250° |
| 2026-04-27 01:39 | 63.99155 | -22.60518 | 150 ft | 5 kts | 211° |
| 2026-04-27 01:39 | 63.99119 | -22.60545 | 151 ft | 5 kts | 190° |
| 2026-04-27 01:39 | 63.99090 | -22.60548 | 151 ft | 0 kts | 179° |
| 2026-04-27 01:46 | 63.99013 | -22.60549 | 153 ft | 38 kts | 180° |
| 2026-04-27 01:47 | 63.98492 | -22.60551 | 160 ft | 108 kts | 180° |
| 2026-04-27 01:47 | 63.97545 | -22.60529 | 166 ft | 163 kts | 176° |
| 2026-04-27 01:47 | 63.96350 | -22.60715 | 594 ft | 179 kts | 187° |
| 2026-04-27 01:47 | 63.95142 | -22.61203 | 1335 ft | 182 kts | 182° |
| 2026-04-27 01:48 | 63.93905 | -22.61069 | 2148 ft | 182 kts | 173° |
| 2026-04-27 01:48 | 63.92695 | -22.60738 | 2853 ft | 163 kts | 169° |
| 2026-04-27 01:48 | 63.91684 | -22.60289 | 3269 ft | 159 kts | 171° |
| 2026-04-27 01:48 | 63.90441 | -22.60329 | 2959 ft | 192 kts | 186° |
| 2026-04-27 01:49 | 63.89362 | -22.61820 | 3688 ft | 184 kts | 225° |
| 2026-04-27 01:49 | 63.88681 | -22.64381 | 3944 ft | 199 kts | 236° |
| 2026-04-27 01:49 | 63.88046 | -22.67290 | 4165 ft | 212 kts | 237° |
| 2026-04-27 01:49 | 63.87413 | -22.70407 | 4414 ft | 223 kts | 238° |
| 2026-04-27 01:50 | 63.86774 | -22.73653 | 4634 ft | 233 kts | 238° |
| 2026-04-27 01:50 | 63.86108 | -22.77068 | 4901 ft | 241 kts | 239° |
| 2026-04-27 01:50 | 63.85412 | -22.80637 | 5167 ft | 255 kts | 240° |
| 2026-04-27 01:50 | 63.84681 | -22.84391 | 5459 ft | 271 kts | 240° |
| 2026-04-27 01:51 | 63.83892 | -22.88440 | 5751 ft | 287 kts | 240° |
| 2026-04-27 01:51 | 63.83095 | -22.92532 | 6406 ft | 288 kts | 240° |
| 2026-04-27 01:51 | 63.82288 | -22.96647 | 7011 ft | 291 kts | 241° |
| 2026-04-27 01:51 | 63.81467 | -23.00834 | 7628 ft | 293 kts | 241° |
| 2026-04-27 01:52 | 63.80648 | -23.05000 | 8189 ft | 296 kts | 242° |
| 2026-04-27 01:52 | 63.79800 | -23.09305 | 8693 ft | 300 kts | 242° |
| 2026-04-27 01:52 | 63.78959 | -23.13565 | 9283 ft | 301 kts | 242° |
| 2026-04-27 01:52 | 63.78110 | -23.17859 | 9834 ft | 302 kts | 242° |
| 2026-04-27 01:53 | 63.77251 | -23.22192 | 10341 ft | 305 kts | 242° |
| 2026-04-27 01:53 | 63.76376 | -23.26602 | 10858 ft | 306 kts | 242° |
| 2026-04-27 01:53 | 63.75502 | -23.30984 | 11345 ft | 308 kts | 242° |
| 2026-04-27 01:53 | 63.74621 | -23.35401 | 11772 ft | 312 kts | 241° |
| 2026-04-27 01:54 | 63.73743 | -23.39796 | 12247 ft | 313 kts | 241° |
| 2026-04-27 01:54 | 63.72842 | -23.44289 | 12704 ft | 315 kts | 241° |
| 2026-04-27 01:54 | 63.71937 | -23.48798 | 13114 ft | 317 kts | 241° |
| 2026-04-27 01:54 | 63.71017 | -23.53361 | 13476 ft | 321 kts | 241° |
| 2026-04-27 01:55 | 63.70109 | -23.57865 | 13960 ft | 320 kts | 241° |
| 2026-04-27 01:55 | 63.69186 | -23.62425 | 14323 ft | 323 kts | 241° |
| 2026-04-27 01:55 | 63.68257 | -23.67000 | 14797 ft | 322 kts | 240° |
| 2026-04-27 01:55 | 63.67327 | -23.71580 | 15190 ft | 322 kts | 240° |
| 2026-04-27 01:56 | 63.65456 | -23.80770 | 15874 ft | 326 kts | 240° |
| 2026-04-27 01:56 | 63.64514 | -23.85379 | 16306 ft | 325 kts | 240° |
| 2026-04-27 01:56 | 63.63578 | -23.89942 | 16689 ft | 324 kts | 241° |
| 2026-04-27 01:57 | 63.62628 | -23.94569 | 16950 ft | 328 kts | 241° |
| 2026-04-27 01:57 | 63.61671 | -23.99214 | 17292 ft | 328 kts | 241° |
| 2026-04-27 01:57 | 63.60722 | -24.03819 | 17648 ft | 328 kts | 241° |
| 2026-04-27 01:57 | 63.59758 | -24.08486 | 17942 ft | 330 kts | 241° |
| 2026-04-27 01:58 | 63.58797 | -24.13120 | 18239 ft | 331 kts | 241° |
| 2026-04-27 01:58 | 63.57840 | -24.17735 | 18603 ft | 329 kts | 241° |
| 2026-04-27 01:58 | 63.56869 | -24.22395 | 18802 ft | 333 kts | 241° |
| 2026-04-27 01:58 | 63.55891 | -24.27084 | 19115 ft | 333 kts | 241° |
| 2026-04-27 01:59 | 63.54907 | -24.31792 | 19493 ft | 330 kts | 241° |
| 2026-04-27 01:59 | 63.53936 | -24.36426 | 19759 ft | 331 kts | 241° |
| 2026-04-27 01:59 | 63.52956 | -24.41096 | 19990 ft | 333 kts | 241° |
| 2026-04-27 01:59 | 63.51981 | -24.45729 | 20314 ft | 331 kts | 241° |
| 2026-04-27 02:00 | 63.50993 | -24.50409 | 20523 ft | 333 kts | 241° |
| 2026-04-27 02:00 | 63.50008 | -24.55060 | 20807 ft | 332 kts | 241° |
| 2026-04-27 02:00 | 63.49153 | -24.59794 | 21041 ft | 336 kts | 249° |
| 2026-04-27 02:00 | 63.48516 | -24.64867 | 21229 ft | 338 kts | 249° |
| 2026-04-27 02:01 | 63.47860 | -24.69903 | 21483 ft | 337 kts | 248° |
| 2026-04-27 02:01 | 63.47214 | -24.74845 | 21764 ft | 336 kts | 248° |
| 2026-04-27 02:01 | 63.46552 | -24.79897 | 21976 ft | 337 kts | 248° |
| 2026-04-27 02:01 | 63.45893 | -24.84885 | 22149 ft | 338 kts | 248° |
| 2026-04-27 02:02 | 63.45230 | -24.89901 | 22380 ft | 338 kts | 248° |
| 2026-04-27 02:02 | 63.44567 | -24.94904 | 22598 ft | 338 kts | 248° |
| 2026-04-27 02:02 | 63.43897 | -24.99915 | 22743 ft | 339 kts | 248° |
| 2026-04-27 02:02 | 63.43228 | -25.04943 | 22970 ft | 339 kts | 248° |
| 2026-04-27 02:03 | 63.42557 | -25.09943 | 23132 ft | 339 kts | 248° |
| 2026-04-27 02:03 | 63.41880 | -25.14977 | 23345 ft | 339 kts | 248° |
| 2026-04-27 02:03 | 63.41202 | -25.20015 | 23571 ft | 338 kts | 248° |
| 2026-04-27 02:03 | 63.40528 | -25.24991 | 23769 ft | 338 kts | 247° |
| 2026-04-27 02:04 | 63.39848 | -25.30013 | 23914 ft | 338 kts | 248° |
| 2026-04-27 02:04 | 63.39171 | -25.34988 | 24061 ft | 339 kts | 247° |
| 2026-04-27 02:04 | 63.38486 | -25.39992 | 24254 ft | 338 kts | 248° |
| 2026-04-27 02:04 | 63.37804 | -25.44987 | 24404 ft | 338 kts | 248° |
| 2026-04-27 02:05 | 63.37115 | -25.49998 | 24552 ft | 339 kts | 248° |
| 2026-04-27 02:05 | 63.36429 | -25.54977 | 24684 ft | 339 kts | 248° |
| 2026-04-27 02:05 | 63.35739 | -25.59988 | 24846 ft | 339 kts | 247° |
| 2026-04-27 02:05 | 63.35050 | -25.64962 | 24987 ft | 339 kts | 247° |
| 2026-04-27 02:06 | 63.34357 | -25.69936 | 25110 ft | 339 kts | 246° |
| 2026-04-27 02:06 | 63.33664 | -25.74909 | 25287 ft | 338 kts | 246° |
| 2026-04-27 02:06 | 63.32963 | -25.79921 | 25466 ft | 338 kts | 247° |
| 2026-04-27 02:06 | 63.32263 | -25.84905 | 25577 ft | 339 kts | 246° |
| 2026-04-27 02:07 | 63.31570 | -25.89846 | 25713 ft | 339 kts | 247° |
| 2026-04-27 02:07 | 63.30861 | -25.94885 | 25841 ft | 339 kts | 246° |
| 2026-04-27 02:07 | 63.30163 | -25.99799 | 25984 ft | 339 kts | 246° |
| 2026-04-27 02:07 | 63.29449 | -26.04839 | 26107 ft | 339 kts | 246° |
| 2026-04-27 02:08 | 63.28747 | -26.09774 | 26234 ft | 339 kts | 246° |
| 2026-04-27 02:08 | 63.28034 | -26.14766 | 26365 ft | 340 kts | 246° |
| 2026-04-27 02:08 | 63.27323 | -26.19731 | 26489 ft | 339 kts | 246° |
| 2026-04-27 02:08 | 63.26606 | -26.24733 | 26602 ft | 339 kts | 246° |
| 2026-04-27 02:09 | 63.25895 | -26.29673 | 26713 ft | 339 kts | 246° |
| 2026-04-27 02:09 | 63.25174 | -26.34650 | 26864 ft | 338 kts | 246° |
| 2026-04-27 02:09 | 63.24460 | -26.39606 | 26967 ft | 338 kts | 246° |
| 2026-04-27 02:09 | 63.23739 | -26.44551 | 27088 ft | 337 kts | 246° |
| 2026-04-27 02:10 | 63.23024 | -26.49461 | 27213 ft | 337 kts | 246° |
| 2026-04-27 02:10 | 63.22303 | -26.54401 | 27343 ft | 336 kts | 246° |
| 2026-04-27 02:10 | 63.21590 | -26.59275 | 27465 ft | 335 kts | 246° |
| 2026-04-27 02:10 | 63.20872 | -26.64159 | 27578 ft | 335 kts | 245° |
| 2026-04-27 02:11 | 63.20152 | -26.69052 | 27700 ft | 334 kts | 245° |
| 2026-04-27 02:11 | 63.19432 | -26.73909 | 27842 ft | 333 kts | 245° |
| 2026-04-27 02:11 | 63.18719 | -26.78743 | 27975 ft | 332 kts | 245° |
| 2026-04-27 02:11 | 63.18000 | -26.83575 | 28110 ft | 331 kts | 245° |
| 2026-04-27 02:12 | 63.17281 | -26.88391 | 28239 ft | 329 kts | 245° |
| 2026-04-27 02:12 | 63.16573 | -26.93148 | 28365 ft | 328 kts | 244° |
| 2026-04-27 02:12 | 63.15860 | -26.97902 | 28482 ft | 327 kts | 245° |
| 2026-04-27 02:12 | 63.15143 | -27.02671 | 28603 ft | 326 kts | 245° |
| 2026-04-27 02:13 | 63.14439 | -27.07348 | 28723 ft | 325 kts | 245° |
| 2026-04-27 02:13 | 63.13718 | -27.12116 | 28840 ft | 323 kts | 244° |
| 2026-04-27 02:13 | 63.13013 | -27.16775 | 28952 ft | 322 kts | 244° |
| 2026-04-27 02:13 | 63.12312 | -27.21404 | 29066 ft | 320 kts | 245° |
| 2026-04-27 02:14 | 63.11597 | -27.26081 | 29173 ft | 319 kts | 245° |
| 2026-04-27 02:14 | 63.10902 | -27.30638 | 29297 ft | 317 kts | 245° |
| 2026-04-27 02:14 | 63.09495 | -27.39826 | 29508 ft | 314 kts | 245° |
| 2026-04-27 02:15 | 63.08800 | -27.44352 | 29614 ft | 312 kts | 244° |
| 2026-04-27 02:15 | 63.08112 | -27.48815 | 29712 ft | 310 kts | 244° |
| 2026-04-27 02:15 | 63.06721 | -27.57786 | 29911 ft | 307 kts | 245° |
| 2026-04-27 02:16 | 63.06040 | -27.62198 | 30024 ft | 305 kts | 243° |
| 2026-04-27 02:16 | 63.05356 | -27.66556 | 30123 ft | 302 kts | 243° |
| 2026-04-27 02:16 | 63.04671 | -27.70967 | 30241 ft | 300 kts | 244° |
| 2026-04-27 02:16 | 63.03997 | -27.75268 | 30352 ft | 298 kts | 244° |
| 2026-04-27 02:17 | 63.03323 | -27.79569 | 30472 ft | 296 kts | 243° |
| 2026-04-27 02:17 | 63.02652 | -27.83820 | 30568 ft | 294 kts | 243° |
| 2026-04-27 02:17 | 63.01986 | -27.88073 | 30679 ft | 291 kts | 243° |
| 2026-04-27 02:17 | 63.01330 | -27.92208 | 30769 ft | 289 kts | 244° |
| 2026-04-27 02:18 | 63.00665 | -27.96394 | 30888 ft | 286 kts | 243° |
| 2026-04-27 02:18 | 63.00017 | -28.00496 | 30971 ft | 283 kts | 244° |
| 2026-04-27 02:18 | 62.99376 | -28.04517 | 31078 ft | 281 kts | 243° |
| 2026-04-27 02:18 | 62.98727 | -28.08581 | 31174 ft | 278 kts | 243° |
| 2026-04-27 02:19 | 62.98098 | -28.12533 | 31253 ft | 275 kts | 243° |
| 2026-04-27 02:19 | 62.97466 | -28.16470 | 31355 ft | 272 kts | 243° |
| 2026-04-27 02:19 | 62.96846 | -28.20342 | 31448 ft | 269 kts | 243° |
| 2026-04-27 02:19 | 62.96224 | -28.24197 | 31540 ft | 265 kts | 243° |
| 2026-04-27 02:20 | 62.95610 | -28.28008 | 31641 ft | 261 kts | 243° |
| 2026-04-27 02:20 | 62.95013 | -28.31705 | 31737 ft | 257 kts | 243° |
| 2026-04-27 02:20 | 62.94417 | -28.35404 | 31816 ft | 254 kts | 243° |
| 2026-04-27 02:20 | 62.93826 | -28.39038 | 31906 ft | 250 kts | 243° |
| 2026-04-27 02:21 | 62.93250 | -28.42588 | 31983 ft | 246 kts | 243° |
| 2026-04-27 02:21 | 62.92688 | -28.46059 | 32073 ft | 241 kts | 242° |
| 2026-04-27 02:21 | 62.92124 | -28.49502 | 32281 ft | 239 kts | 242° |
| 2026-04-27 02:21 | 62.91563 | -28.52926 | 32512 ft | 238 kts | 242° |
| 2026-04-27 02:22 | 62.91014 | -28.56275 | 32727 ft | 235 kts | 243° |
| 2026-04-27 02:22 | 62.90558 | -28.59719 | 32875 ft | 242 kts | 256° |
| 2026-04-27 02:22 | 62.90899 | -28.63648 | 32326 ft | 303 kts | 286° |
| 2026-04-27 02:22 | 62.92473 | -28.67342 | 31647 ft | 375 kts | 317° |
| 2026-04-27 02:23 | 62.95102 | -28.69088 | 31759 ft | 417 kts | 351° |
| 2026-04-27 02:23 | 62.97932 | -28.67891 | 32573 ft | 418 kts | 23° |
| 2026-04-27 02:23 | 63.00227 | -28.64299 | 33164 ft | 405 kts | 53° |
| 2026-04-27 02:23 | 63.01666 | -28.59090 | 33010 ft | 399 kts | 82° |
| 2026-04-27 02:24 | 63.01947 | -28.53120 | 32402 ft | 389 kts | 114° |
| 2026-04-27 02:24 | 63.00966 | -28.47951 | 32062 ft | 354 kts | 146° |
| 2026-04-27 02:24 | 62.99150 | -28.45125 | 32472 ft | 295 kts | 178° |
| 2026-04-27 02:24 | 62.97335 | -28.45131 | 33135 ft | 247 kts | 208° |
| 2026-04-27 02:25 | 62.96053 | -28.47398 | 33209 ft | 246 kts | 238° |
| 2026-04-27 02:25 | 62.95689 | -28.51276 | 32741 ft | 291 kts | 268° |
| 2026-04-27 02:25 | 62.96587 | -28.55645 | 32438 ft | 348 kts | 300° |
| 2026-04-27 02:25 | 62.98694 | -28.58744 | 32755 ft | 387 kts | 332° |
| 2026-04-27 02:26 | 63.01394 | -28.59343 | 33334 ft | 404 kts | 2° |
| 2026-04-27 02:26 | 63.04050 | -28.57333 | 33568 ft | 415 kts | 32° |
| 2026-04-27 02:26 | 63.06189 | -28.52979 | 33300 ft | 424 kts | 62° |
| 2026-04-27 02:26 | 63.07294 | -28.47096 | 32854 ft | 419 kts | 92° |
| 2026-04-27 02:27 | 63.07081 | -28.40935 | 32812 ft | 383 kts | 125° |
| 2026-04-27 02:27 | 63.05769 | -28.36513 | 33379 ft | 324 kts | 156° |
| 2026-04-27 02:27 | 63.03951 | -28.34553 | 33918 ft | 271 kts | 186° |
| 2026-04-27 02:27 | 63.02213 | -28.35132 | 33841 ft | 254 kts | 215° |
| 2026-04-27 02:28 | 63.01020 | -28.38051 | 33343 ft | 278 kts | 245° |
| 2026-04-27 02:28 | 63.00922 | -28.42536 | 33102 ft | 321 kts | 276° |
| 2026-04-27 02:28 | 63.02148 | -28.46847 | 33471 ft | 358 kts | 308° |
| 2026-04-27 02:28 | 63.04383 | -28.49447 | 34086 ft | 381 kts | 339° |
| 2026-04-27 02:29 | 63.07086 | -28.49661 | 34271 ft | 404 kts | 7° |
| 2026-04-27 02:29 | 63.09758 | -28.47285 | 33904 ft | 431 kts | 37° |
| 2026-04-27 02:29 | 63.11821 | -28.42509 | 33476 ft | 441 kts | 67° |
| 2026-04-27 02:29 | 63.12738 | -28.36248 | 33542 ft | 416 kts | 99° |
| 2026-04-27 02:30 | 63.12333 | -28.30410 | 34148 ft | 361 kts | 130° |
| 2026-04-27 02:30 | 63.10994 | -28.26342 | 34567 ft | 309 kts | 159° |
| 2026-04-27 02:30 | 63.09164 | -28.24556 | 34419 ft | 280 kts | 188° |
| 2026-04-27 02:30 | 63.07328 | -28.25459 | 33954 ft | 278 kts | 218° |
| 2026-04-27 02:31 | 63.06163 | -28.28839 | 33803 ft | 294 kts | 249° |
| 2026-04-27 02:31 | 63.06217 | -28.33436 | 34238 ft | 317 kts | 280° |
| 2026-04-27 02:31 | 63.07513 | -28.37535 | 34658 ft | 346 kts | 310° |
| 2026-04-27 02:31 | 63.09314 | -28.40903 | 34878 ft | 329 kts | 297° |
| 2026-04-27 02:32 | 63.10415 | -28.44976 | 34711 ft | 301 kts | 269° |
| 2026-04-27 02:32 | 63.10304 | -28.49438 | 33780 ft | 304 kts | 243° |
| 2026-04-27 02:32 | 63.09539 | -28.53907 | 33241 ft | 322 kts | 244° |
| 2026-04-27 02:32 | 63.08876 | -28.58638 | 33409 ft | 322 kts | 242° |
| 2026-04-27 02:33 | 63.07866 | -28.63028 | 33567 ft | 319 kts | 233° |
| 2026-04-27 02:33 | 63.06530 | -28.66855 | 33671 ft | 320 kts | 225° |
| 2026-04-27 02:33 | 63.04964 | -28.70324 | 33805 ft | 322 kts | 221° |
| 2026-04-27 02:33 | 63.03279 | -28.73572 | 33905 ft | 326 kts | 220° |
| 2026-04-27 02:34 | 63.01532 | -28.76793 | 34045 ft | 329 kts | 219° |
| 2026-04-27 02:34 | 62.99775 | -28.80004 | 34122 ft | 333 kts | 219° |
| 2026-04-27 02:34 | 62.96155 | -28.86489 | 34313 ft | 339 kts | 218° |
| 2026-04-27 02:35 | 62.94328 | -28.89671 | 34433 ft | 343 kts | 218° |
| 2026-04-27 02:35 | 62.92446 | -28.92918 | 34519 ft | 346 kts | 218° |
| 2026-04-27 02:35 | 62.88655 | -28.99471 | 34711 ft | 352 kts | 218° |
| 2026-04-27 02:36 | 62.86731 | -29.02747 | 34850 ft | 354 kts | 218° |
| 2026-04-27 02:36 | 62.84804 | -29.06128 | 34992 ft | 357 kts | 220° |
| 2026-04-27 02:36 | 62.83040 | -29.09959 | 35083 ft | 361 kts | 231° |
| 2026-04-27 02:36 | 62.81726 | -29.14677 | 35306 ft | 364 kts | 239° |
| 2026-04-27 02:37 | 62.80655 | -29.19631 | 35619 ft | 363 kts | 242° |
| 2026-04-27 02:37 | 62.79687 | -29.24681 | 35905 ft | 363 kts | 243° |
| 2026-04-27 02:37 | 62.78778 | -29.29715 | 36175 ft | 361 kts | 244° |
| 2026-04-27 02:37 | 62.77879 | -29.34853 | 36479 ft | 360 kts | 245° |
| 2026-04-27 02:38 | 62.77001 | -29.39942 | 36766 ft | 358 kts | 245° |
| 2026-04-27 02:38 | 62.76138 | -29.44933 | 37025 ft | 355 kts | 245° |
| 2026-04-27 02:38 | 62.75273 | -29.49945 | 37298 ft | 353 kts | 245° |
| 2026-04-27 02:38 | 62.74388 | -29.54920 | 37634 ft | 362 kts | 242° |
| 2026-04-27 02:39 | 62.73225 | -29.59926 | 37714 ft | 386 kts | 248° |
| 2026-04-27 02:39 | 62.72406 | -29.65525 | 37770 ft | 394 kts | 246° |
| 2026-04-27 02:39 | 62.71385 | -29.71070 | 37702 ft | 408 kts | 249° |
| 2026-04-27 02:39 | 62.70507 | -29.76936 | 37701 ft | 409 kts | 246° |
| 2026-04-27 02:40 | 62.69529 | -29.82789 | 37806 ft | 411 kts | 245° |
| 2026-04-27 02:40 | 62.68533 | -29.88584 | 37683 ft | 418 kts | 245° |
| 2026-04-27 02:40 | 62.66460 | -30.00400 | 37705 ft | 423 kts | 245° |
| 2026-04-27 02:41 | 62.64343 | -30.12351 | 37776 ft | 427 kts | 245° |
| 2026-04-27 02:41 | 62.62190 | -30.24404 | 37723 ft | 430 kts | 245° |
| 2026-04-27 02:42 | 62.60027 | -30.36439 | 37695 ft | 431 kts | 245° |
| 2026-04-27 02:42 | 62.57854 | -30.48454 | 37741 ft | 429 kts | 245° |
| 2026-04-27 02:43 | 62.56769 | -30.54435 | 37875 ft | 426 kts | 245° |
| 2026-04-27 02:43 | 62.55680 | -30.60408 | 37924 ft | 426 kts | 245° |
| 2026-04-27 02:43 | 62.53513 | -30.72242 | 38019 ft | 425 kts | 244° |
| 2026-04-27 02:44 | 62.51346 | -30.84014 | 38117 ft | 422 kts | 244° |
| 2026-04-27 02:44 | 62.49173 | -30.95735 | 38227 ft | 422 kts | 244° |
| 2026-04-27 02:45 | 62.46987 | -31.07110 | 38336 ft | 400 kts | 246° |
| 2026-04-27 02:45 | 62.44968 | -31.18092 | 38633 ft | 394 kts | 245° |
| 2026-04-27 02:46 | 62.42911 | -31.29122 | 38639 ft | 403 kts | 245° |
| 2026-04-27 02:46 | 62.40783 | -31.40377 | 38651 ft | 412 kts | 244° |
| 2026-04-27 02:47 | 62.38591 | -31.51872 | 38676 ft | 420 kts | 245° |
| 2026-04-27 02:47 | 62.36356 | -31.63532 | 38696 ft | 426 kts | 245° |
| 2026-04-27 02:48 | 62.34084 | -31.75314 | 38667 ft | 432 kts | 244° |
| 2026-04-27 02:48 | 62.31760 | -31.87288 | 38630 ft | 436 kts | 244° |
| 2026-04-27 02:49 | 62.29440 | -31.99179 | 38645 ft | 437 kts | 244° |
| 2026-04-27 02:49 | 62.27088 | -32.11157 | 38673 ft | 437 kts | 244° |
| 2026-04-27 02:50 | 62.24719 | -32.23156 | 38627 ft | 439 kts | 244° |
| 2026-04-27 02:50 | 62.22334 | -32.35159 | 38605 ft | 440 kts | 244° |
| 2026-04-27 02:51 | 62.19943 | -32.47119 | 38634 ft | 439 kts | 244° |
| 2026-04-27 02:51 | 62.17538 | -32.59087 | 38652 ft | 439 kts | 244° |
| 2026-04-27 02:52 | 62.15121 | -32.71037 | 38629 ft | 439 kts | 243° |
| 2026-04-27 02:52 | 62.12698 | -32.82951 | 38579 ft | 441 kts | 243° |
| 2026-04-27 02:53 | 62.10262 | -32.94858 | 38606 ft | 441 kts | 243° |
| 2026-04-27 02:53 | 62.07796 | -33.06840 | 38646 ft | 440 kts | 243° |
| 2026-04-27 02:54 | 62.05333 | -33.18736 | 38635 ft | 440 kts | 244° |
| 2026-04-27 02:54 | 62.02862 | -33.30612 | 38582 ft | 441 kts | 243° |
| 2026-04-27 02:55 | 62.00377 | -33.42478 | 38568 ft | 442 kts | 244° |
| 2026-04-27 02:55 | 61.97893 | -33.54273 | 38623 ft | 441 kts | 244° |
| 2026-04-27 02:56 | 61.95388 | -33.66105 | 38616 ft | 441 kts | 243° |
| 2026-04-27 02:56 | 61.92863 | -33.77954 | 38577 ft | 442 kts | 243° |
| 2026-04-27 02:57 | 61.90333 | -33.89771 | 38580 ft | 442 kts | 243° |
| 2026-04-27 02:57 | 61.87793 | -34.01557 | 38623 ft | 442 kts | 243° |
| 2026-04-27 02:58 | 61.85243 | -34.13333 | 38591 ft | 442 kts | 243° |
| 2026-04-27 02:58 | 61.82661 | -34.25183 | 38551 ft | 443 kts | 243° |
| 2026-04-27 02:59 | 61.80096 | -34.36894 | 38567 ft | 443 kts | 243° |
| 2026-04-27 02:59 | 61.77492 | -34.48715 | 38585 ft | 443 kts | 243° |
| 2026-04-27 03:00 | 61.74895 | -34.60440 | 38559 ft | 443 kts | 243° |
| 2026-04-27 03:00 | 61.72297 | -34.72102 | 38524 ft | 444 kts | 242° |
| 2026-04-27 03:01 | 61.69667 | -34.83842 | 38542 ft | 444 kts | 242° |
| 2026-04-27 03:01 | 61.67043 | -34.95498 | 38547 ft | 444 kts | 242° |
| 2026-04-27 03:02 | 61.64382 | -35.07244 | 38528 ft | 445 kts | 242° |
| 2026-04-27 03:02 | 61.61727 | -35.18905 | 38515 ft | 446 kts | 242° |
| 2026-04-27 03:03 | 61.57733 | -35.36323 | 38492 ft | 446 kts | 242° |
| 2026-04-27 03:04 | 61.55040 | -35.47996 | 38516 ft | 446 kts | 242° |
| 2026-04-27 03:04 | 61.52337 | -35.59642 | 38543 ft | 445 kts | 242° |
| 2026-04-27 03:05 | 61.49640 | -35.71201 | 38503 ft | 446 kts | 242° |
| 2026-04-27 03:05 | 61.46920 | -35.82801 | 38504 ft | 446 kts | 242° |
| 2026-04-27 03:06 | 61.44194 | -35.94361 | 38524 ft | 445 kts | 242° |
| 2026-04-27 03:06 | 61.41468 | -36.05856 | 38492 ft | 445 kts | 242° |
| 2026-04-27 03:07 | 61.38712 | -36.17417 | 38479 ft | 446 kts | 242° |
| 2026-04-27 03:07 | 61.35964 | -36.28887 | 38504 ft | 445 kts | 242° |
| 2026-04-27 03:08 | 61.33192 | -36.40398 | 38510 ft | 445 kts | 242° |
| 2026-04-27 03:08 | 61.30422 | -36.51837 | 38475 ft | 445 kts | 242° |
| 2026-04-27 03:09 | 61.27650 | -36.63223 | 38481 ft | 446 kts | 242° |
| 2026-04-27 03:09 | 61.24858 | -36.74632 | 38501 ft | 445 kts | 241° |
| 2026-04-27 03:10 | 61.22046 | -36.86069 | 38503 ft | 445 kts | 241° |
| 2026-04-27 03:10 | 61.19232 | -36.97446 | 38474 ft | 446 kts | 241° |
| 2026-04-27 03:11 | 61.16413 | -37.08788 | 38461 ft | 446 kts | 241° |
| 2026-04-27 03:11 | 61.13585 | -37.20114 | 38511 ft | 445 kts | 241° |
| 2026-04-27 03:12 | 61.10745 | -37.31422 | 38513 ft | 445 kts | 241° |
| 2026-04-27 03:12 | 61.07888 | -37.42739 | 38462 ft | 446 kts | 241° |
| 2026-04-27 03:13 | 61.05031 | -37.54004 | 38458 ft | 447 kts | 241° |
| 2026-04-27 03:13 | 61.02147 | -37.65317 | 38511 ft | 446 kts | 240° |
| 2026-04-27 03:14 | 60.99271 | -37.76535 | 38501 ft | 445 kts | 240° |
| 2026-04-27 03:14 | 60.96372 | -37.87793 | 38466 ft | 447 kts | 240° |
| 2026-04-27 03:15 | 60.93471 | -37.98998 | 38461 ft | 447 kts | 240° |
| 2026-04-27 03:15 | 60.90562 | -38.10179 | 38502 ft | 446 kts | 240° |
| 2026-04-27 03:16 | 60.87643 | -38.21344 | 38525 ft | 446 kts | 240° |
| 2026-04-27 03:16 | 60.84698 | -38.32547 | 38466 ft | 448 kts | 240° |
| 2026-04-27 03:17 | 60.81745 | -38.43734 | 38463 ft | 449 kts | 240° |
| 2026-04-27 03:17 | 60.78796 | -38.54844 | 38506 ft | 448 kts | 240° |
| 2026-04-27 03:18 | 60.75822 | -38.65994 | 38530 ft | 448 kts | 240° |
| 2026-04-27 03:18 | 60.72827 | -38.77163 | 38494 ft | 449 kts | 240° |
| 2026-04-27 03:19 | 60.69839 | -38.88252 | 38479 ft | 450 kts | 240° |
| 2026-04-27 03:19 | 60.66839 | -38.99336 | 38492 ft | 450 kts | 240° |
| 2026-04-27 03:20 | 60.63803 | -39.10495 | 38525 ft | 450 kts | 240° |
| 2026-04-27 03:20 | 60.60786 | -39.21531 | 38495 ft | 450 kts | 240° |
| 2026-04-27 03:21 | 60.57748 | -39.32587 | 38480 ft | 451 kts | 240° |
| 2026-04-27 03:21 | 60.54685 | -39.43681 | 38511 ft | 450 kts | 240° |
| 2026-04-27 03:22 | 60.51640 | -39.54658 | 38528 ft | 449 kts | 240° |
| 2026-04-27 03:22 | 60.48572 | -39.65660 | 38492 ft | 450 kts | 239° |
| 2026-04-27 03:23 | 60.45497 | -39.76637 | 38481 ft | 450 kts | 239° |
| 2026-04-27 03:23 | 60.42413 | -39.87594 | 38522 ft | 449 kts | 240° |
| 2026-04-27 03:24 | 60.39328 | -39.98501 | 38533 ft | 449 kts | 239° |
| 2026-04-27 03:24 | 60.36217 | -40.09447 | 38496 ft | 449 kts | 239° |
| 2026-04-27 03:25 | 60.33118 | -40.20298 | 38497 ft | 450 kts | 239° |
| 2026-04-27 03:25 | 60.30003 | -40.31157 | 38533 ft | 449 kts | 239° |
| 2026-04-27 03:26 | 60.26859 | -40.42062 | 38554 ft | 449 kts | 240° |
| 2026-04-27 03:26 | 60.23725 | -40.52879 | 38518 ft | 449 kts | 239° |
| 2026-04-27 03:27 | 60.20583 | -40.63678 | 38513 ft | 450 kts | 240° |
| 2026-04-27 03:27 | 60.17447 | -40.74404 | 38566 ft | 449 kts | 239° |
| 2026-04-27 03:28 | 60.14297 | -40.85126 | 38578 ft | 448 kts | 239° |
| 2026-04-27 03:28 | 60.11109 | -40.95928 | 38549 ft | 449 kts | 239° |
| 2026-04-27 03:29 | 60.07957 | -41.06559 | 38539 ft | 449 kts | 239° |
| 2026-04-27 03:29 | 60.04778 | -41.17228 | 38574 ft | 448 kts | 239° |
| 2026-04-27 03:30 | 60.01563 | -41.27971 | 38584 ft | 448 kts | 239° |
| 2026-04-27 03:30 | 59.98367 | -41.38603 | 38558 ft | 448 kts | 239° |
| 2026-04-27 03:31 | 59.95171 | -41.49184 | 38545 ft | 449 kts | 239° |
| 2026-04-27 03:31 | 59.91968 | -41.59737 | 38599 ft | 449 kts | 239° |
| 2026-04-27 03:32 | 59.88726 | -41.70372 | 38589 ft | 448 kts | 238° |
| 2026-04-27 03:32 | 59.85490 | -41.80937 | 38571 ft | 450 kts | 238° |
| 2026-04-27 03:33 | 59.82236 | -41.91517 | 38575 ft | 451 kts | 239° |
| 2026-04-27 03:33 | 59.78983 | -42.02044 | 38624 ft | 451 kts | 238° |
| 2026-04-27 03:34 | 59.75709 | -42.12587 | 38596 ft | 452 kts | 239° |
| 2026-04-27 03:34 | 59.72400 | -42.23201 | 38571 ft | 453 kts | 239° |
| 2026-04-27 03:35 | 59.69105 | -42.33718 | 38598 ft | 453 kts | 239° |
| 2026-04-27 03:35 | 59.65810 | -42.44187 | 38631 ft | 452 kts | 239° |
| 2026-04-27 03:36 | 59.62944 | -42.53258 | 38651 ft | 452 kts | 239° |